createdAt,value
2017-06-17T00:01:46.307Z,55.33
2017-06-17T00:04:01.824Z,55.78
2017-06-17T00:06:25.819Z,55.52
2017-06-17T00:08:50.821Z,56.07
2017-06-17T00:11:06.391Z,55.78
2017-06-17T00:13:31.408Z,55.68
2017-06-17T00:15:56.402Z,55.78
2017-06-17T00:18:20.408Z,56.45
2017-06-17T00:20:51.057Z,56.07
2017-06-17T00:22:52.411Z,56.55
2017-06-17T00:25:17.421Z,56.74
2017-06-17T00:27:40.738Z,56.65
2017-06-17T00:30:12.253Z,56.26
2017-06-17T00:32:28.815Z,56.45
2017-06-17T00:34:52.809Z,56.45
2017-06-17T00:37:18.808Z,56.45
2017-06-17T00:39:51.745Z,56.65
2017-06-17T00:42:09.298Z,56.38
2017-06-17T00:44:25.869Z,55.98
2017-06-17T00:46:49.792Z,56.16
2017-06-17T00:49:29.744Z,56.16
2017-06-17T00:51:55.742Z,56.65
2017-06-17T00:54:27.256Z,56.55
2017-06-17T00:56:50.757Z,56.93
2017-06-17T00:58:52.117Z,57.1
2017-06-17T01:01:09.690Z,57.03
2017-06-17T01:03:33.670Z,56.45
2017-06-17T01:06:04.440Z,56.65
2017-06-17T01:08:19.956Z,56.26
2017-06-17T01:10:43.900Z,56.26
2017-06-17T01:13:15.444Z,56.93
2017-06-17T01:15:46.965Z,56.91
2017-06-17T01:18:12.894Z,56.91
2017-06-17T01:20:29.433Z,57.13
2017-06-17T01:22:30.772Z,57.03
2017-06-17T01:24:54.755Z,57
2017-06-17T01:27:10.260Z,56.81
2017-06-17T01:29:41.108Z,56.93
2017-06-17T01:32:07.056Z,57
2017-06-17T01:34:12.748Z,56.81
2017-06-17T01:36:38.699Z,56.81
2017-06-17T01:39:03.587Z,57.29
2017-06-17T01:41:27.530Z,57
2017-06-17T01:43:51.475Z,57
2017-06-17T01:46:07.951Z,57
2017-06-17T01:48:31.875Z,58.25
2017-06-17T01:50:48.376Z,57.29
2017-06-17T01:53:12.302Z,57.2
2017-06-17T01:55:38.243Z,57
2017-06-17T01:57:54.744Z,57.97
2017-06-17T02:00:18.673Z,57.48
2017-06-17T02:02:43.612Z,56.91
2017-06-17T02:04:59.120Z,57.29
2017-06-17T02:07:24.046Z,58.15
2017-06-17T02:09:49.961Z,57.29
2017-06-17T02:11:51.303Z,58.06
2017-06-17T02:14:16.250Z,57.2
2017-06-17T02:16:41.192Z,57.75
2017-06-17T02:19:05.123Z,58.7
2017-06-17T02:21:29.061Z,58.22
2017-06-17T02:23:54.973Z,58.03
2017-06-17T02:26:18.886Z,59.19
2017-06-17T02:28:42.855Z,59.19
2017-06-17T02:30:58.320Z,59.76
2017-06-17T02:33:22.200Z,58.89
2017-06-17T02:35:46.091Z,59.28
2017-06-17T02:38:10.002Z,59.66
2017-06-17T02:40:42.639Z,59.76
2017-06-17T02:43:06.536Z,58.8
2017-06-17T02:45:32.385Z,59.09
2017-06-17T02:48:02.711Z,59.19
2017-06-17T02:52:04.455Z,59.28
2017-06-17T02:54:29.385Z,59.47
2017-06-17T02:57:09.269Z,59.57
2017-06-17T02:59:19.150Z,59.47
2017-06-17T03:01:43.057Z,59.66
2017-06-17T03:04:06.954Z,59.09
2017-06-17T03:06:30.831Z,59.76
2017-06-17T03:08:54.728Z,60.31
2017-06-17T03:11:18.608Z,60.21
2017-06-17T03:13:50.470Z,60.11
2017-06-17T03:15:51.822Z,60.31
2017-06-17T03:18:16.747Z,60.5
2017-06-17T03:20:18.058Z,60.21
2017-06-17T03:22:42.939Z,59.73
2017-06-17T03:25:06.814Z,60.31
2017-06-17T03:27:31.702Z,60.02
2017-06-17T03:30:02.403Z,60.5
2017-06-17T03:32:42.908Z,60.02
2017-06-17T03:35:05.991Z,60.98
2017-06-17T03:37:36.400Z,59.25
2017-06-17T03:40:01.278Z,59.73
2017-06-17T03:42:17.727Z,59.34
2017-06-17T03:44:19.048Z,58.8
2017-06-17T03:46:42.387Z,58.7
2017-06-17T03:49:12.883Z,58.7
2017-06-17T03:51:38.751Z,58.8
2017-06-17T03:54:04.625Z,57.97
2017-06-17T03:56:26.973Z,57.97
2017-06-17T03:58:57.397Z,57.97
2017-06-17T04:01:21.317Z,57.48
2017-06-17T04:03:45.238Z,57
2017-06-17T04:06:10.141Z,56.81
2017-06-17T04:08:41.892Z,56.65
2017-06-17T04:10:58.386Z,56.36
2017-06-17T04:13:23.338Z,55.68
2017-06-17T04:15:38.837Z,56.45
2017-06-17T04:18:03.790Z,54.65
2017-06-17T04:20:17.467Z,53.62
2017-06-17T04:22:34.008Z,47.87
2017-06-17T04:24:26.946Z,42.3
2017-06-17T04:26:51.075Z,40.5
2017-06-17T04:29:22.290Z,35.37
2017-06-17T04:31:47.736Z,34.03
2017-06-17T04:34:11.830Z,30.42
2017-06-17T04:36:29.074Z,26.92
2017-06-17T04:38:46.452Z,26.04
2017-06-17T04:41:02.931Z,23.49
2017-06-17T04:43:29.021Z,21.64
2017-06-17T04:45:55.248Z,19.82
2017-06-17T04:48:29.364Z,18.48
2017-06-17T04:50:39.689Z,16.92
2017-06-17T04:53:07.284Z,16.46
2017-06-17T04:57:08.774Z,14.32
2017-06-17T05:01:11.004Z,13.73
2017-06-17T05:03:39.100Z,13.04
2017-06-17T05:05:57.633Z,11.48
2017-06-17T05:08:38.750Z,11.3
2017-06-17T05:11:06.037Z,10.72
2017-06-17T05:15:08.754Z,10.31
2017-06-17T05:19:03.020Z,9.33
2017-06-17T05:21:37.216Z,8.73
2017-06-17T05:24:04.858Z,9.33
2017-06-17T05:26:33.564Z,7.75
2017-06-17T05:29:00.283Z,9.61
2017-06-17T05:31:33.783Z,7.56
2017-06-17T05:34:09.241Z,6.98
2017-06-17T05:38:04.752Z,6.18
2017-06-17T05:40:30.080Z,5.18
2017-06-17T05:44:34.623Z,6.77
2017-06-17T05:47:18.737Z,5.99
2017-06-17T05:50:01.735Z,6.08
2017-06-17T05:54:04.903Z,4.38
2017-06-17T05:58:08.186Z,3.78
2017-06-17T06:00:42.324Z,4.17
2017-06-17T06:04:37.560Z,4.08
2017-06-17T06:08:33.067Z,3.07
2017-06-17T06:11:08.498Z,2.46
2017-06-17T06:13:37.121Z,2.77
2017-06-17T06:16:05.755Z,3.37
2017-06-17T06:18:35.465Z,2.77
2017-06-17T06:20:45.891Z,3.77
2017-06-17T06:23:13.502Z,2.56
2017-06-17T06:25:48.000Z,3.27
2017-06-17T06:28:16.823Z,3.16
2017-06-17T06:32:21.098Z,7.42
2017-06-17T06:34:40.301Z,9.28
2017-06-17T06:37:15.676Z,9.58
2017-06-17T06:40:00.190Z,8.7
2017-06-17T06:42:28.965Z,9.98
2017-06-17T06:45:05.177Z,11.43
2017-06-17T06:47:31.679Z,9.69
2017-06-17T06:50:06.666Z,9
2017-06-17T06:52:32.155Z,9.98
2017-06-17T06:55:07.169Z,10.66
2017-06-17T06:57:48.643Z,12.51
2017-06-17T07:00:15.467Z,14.03
2017-06-17T07:02:35.554Z,13.06
2017-06-17T07:05:03.125Z,13.55
2017-06-17T07:07:21.050Z,15.2
2017-06-17T07:09:48.397Z,12.3
2017-06-17T07:12:08.163Z,12.31
2017-06-17T07:14:35.407Z,13.37
2017-06-17T07:16:37.293Z,13.95
2017-06-17T07:18:54.835Z,11.72
2017-06-17T07:21:18.986Z,11.63
2017-06-17T07:23:44.480Z,12.78
2017-06-17T07:26:10.521Z,11.82
2017-06-17T07:28:37.573Z,11.54
2017-06-17T07:31:04.604Z,11.15
2017-06-17T07:33:45.493Z,10.38
2017-06-17T07:36:12.574Z,11.23
2017-06-17T07:38:21.554Z,14.73
2017-06-17T07:40:49.632Z,13.18
2017-06-17T07:43:15.668Z,14.73
2017-06-17T07:45:41.730Z,15.03
2017-06-17T07:48:09.763Z,15.13
2017-06-17T07:50:42.484Z,13.66
2017-06-17T07:53:08.554Z,15.23
2017-06-17T07:57:20.231Z,15.01
2017-06-17T08:00:01.134Z,16.66
2017-06-17T08:02:34.157Z,15.79
2017-06-17T08:04:52.614Z,17.52
2017-06-17T08:06:55.491Z,15.81
2017-06-17T08:09:23.534Z,14.25
2017-06-17T08:11:25.873Z,14.75
2017-06-17T08:13:51.917Z,14.46
2017-06-17T08:16:17.967Z,19.99
2017-06-17T08:18:43.860Z,18
2017-06-17T08:21:11.678Z,15.8
2017-06-17T08:23:22.228Z,16.36
2017-06-17T08:25:49.111Z,13.78
2017-06-17T08:27:51.441Z,12.62
2017-06-17T08:30:17.426Z,12.12
2017-06-17T08:32:43.389Z,12.49
2017-06-17T08:35:09.378Z,14.81
2017-06-17T08:37:43.147Z,16.82
2017-06-17T08:40:08.999Z,18.37
2017-06-17T08:42:26.244Z,18.16
2017-06-17T08:44:52.871Z,19.04
2017-06-17T08:47:19.473Z,20.37
2017-06-17T08:49:45.961Z,20.56
2017-06-17T08:52:13.374Z,22.77
2017-06-17T08:54:30.204Z,24.22
2017-06-17T08:56:55.471Z,24.1
2017-06-17T08:59:21.731Z,24.21
2017-06-17T09:01:38.428Z,22.2
2017-06-17T09:04:03.646Z,22.27
2017-06-17T09:06:20.330Z,23.93
2017-06-17T09:08:45.489Z,24.11
2017-06-17T09:11:10.629Z,23.46
2017-06-17T09:13:28.306Z,22.41
2017-06-17T09:15:53.421Z,21.35
2017-06-17T09:18:01.605Z,22.6
2017-06-17T09:20:33.649Z,21.73
2017-06-17T09:22:50.308Z,20.94
2017-06-17T09:25:06.965Z,21.33
2017-06-17T09:27:46.637Z,21.25
2017-06-17T09:30:03.335Z,19.83
2017-06-17T09:32:28.564Z,18.46
2017-06-17T09:34:45.314Z,19.43
2017-06-17T09:37:12.612Z,18.68
2017-06-17T09:39:37.951Z,17.06
2017-06-17T09:41:54.781Z,14.91
2017-06-17T09:44:20.218Z,15.7
2017-06-17T09:46:45.707Z,18.08
2017-06-17T09:49:11.195Z,19.25
2017-06-17T09:51:36.641Z,18.48
2017-06-17T09:54:02.144Z,18.58
2017-06-17T09:56:27.563Z,18.67
2017-06-17T09:58:53.002Z,19.72
2017-06-17T10:01:18.448Z,21.45
2017-06-17T10:03:35.308Z,20.67
2017-06-17T10:06:00.662Z,21.74
2017-06-17T10:08:25.988Z,20.96
2017-06-17T10:10:42.793Z,22.03
2017-06-17T10:13:08.100Z,20.87
2017-06-17T10:15:10.282Z,20.12
2017-06-17T10:17:11.976Z,21.92
2017-06-17T10:19:37.335Z,21.74
2017-06-17T10:22:02.635Z,20.87
2017-06-17T10:24:13.699Z,22.1
2017-06-17T10:26:38.971Z,21.36
2017-06-17T10:29:04.300Z,21.66
2017-06-17T10:31:29.592Z,20.42
2017-06-17T10:33:54.907Z,21.17
2017-06-17T10:36:20.222Z,21.94
2017-06-17T10:38:45.514Z,21.95
2017-06-17T10:41:10.816Z,22.16
2017-06-17T10:43:36.112Z,21.67
2017-06-17T10:46:01.427Z,21.86
2017-06-17T10:48:26.739Z,23.48
2017-06-17T10:50:52.044Z,23.98
2017-06-17T10:53:17.306Z,23.59
2017-06-17T10:55:42.601Z,23.96
2017-06-17T10:58:07.868Z,25.49
2017-06-17T11:00:33.130Z,24.15
2017-06-17T11:02:49.880Z,24.62
2017-06-17T11:05:15.107Z,24.54
2017-06-17T11:07:23.318Z,24.05
2017-06-17T11:09:48.494Z,25.49
2017-06-17T11:12:13.660Z,25.68
2017-06-17T11:14:30.314Z,25.6
2017-06-17T11:16:55.466Z,24.47
2017-06-17T11:19:20.647Z,22.45
2017-06-17T11:21:45.810Z,22.41
2017-06-17T11:24:02.499Z,25.78
2017-06-17T11:26:04.137Z,25.5
2017-06-17T11:28:29.331Z,24.82
2017-06-17T11:30:39.528Z,24.43
2017-06-17T11:33:04.720Z,24.95
2017-06-17T11:35:29.852Z,24.64
2017-06-17T11:37:54.986Z,25.89
2017-06-17T11:40:04.138Z,26.86
2017-06-17T11:42:30.243Z,24.95
2017-06-17T11:44:46.868Z,25.81
2017-06-17T11:47:11.984Z,26.48
2017-06-17T11:49:37.100Z,28.08
2017-06-17T11:51:39.264Z,27.7
2017-06-17T11:53:55.884Z,28.08
2017-06-17T11:56:20.948Z,26.95
2017-06-17T11:58:45.964Z,25.72
2017-06-17T12:01:11.037Z,25.13
2017-06-17T12:03:36.115Z,25.22
2017-06-17T12:06:01.207Z,27.59
2017-06-17T12:08:26.310Z,28.43
2017-06-17T12:10:51.349Z,27.8
2017-06-17T12:12:59.408Z,29.88
2017-06-17T12:15:24.432Z,28
2017-06-17T12:17:40.976Z,27.72
2017-06-17T12:20:05.991Z,26.97
2017-06-17T12:22:31.013Z,25.16
2017-06-17T12:24:56.061Z,26.11
2017-06-17T12:27:12.570Z,26.79
2017-06-17T12:29:37.633Z,26.68
2017-06-17T12:31:54.290Z,26.01
2017-06-17T12:34:19.311Z,26.39
2017-06-17T12:36:44.410Z,26.89
2017-06-17T12:39:00.981Z,27.37
2017-06-17T12:41:17.589Z,27.06
2017-06-17T12:43:42.670Z,27.62
2017-06-17T12:46:07.742Z,28.03
2017-06-17T12:48:24.282Z,28.78
2017-06-17T12:50:49.286Z,28.4
2017-06-17T12:53:14.327Z,27.94
2017-06-17T12:55:30.870Z,28.14
2017-06-17T12:57:55.896Z,28.22
2017-06-17T13:00:12.429Z,27.76
2017-06-17T13:02:37.492Z,27.47
2017-06-17T13:04:54.062Z,27.66
2017-06-17T13:07:10.590Z,26.9
2017-06-17T13:09:35.623Z,27.94
2017-06-17T13:11:52.129Z,28.14
2017-06-17T13:14:17.101Z,26.89
2017-06-17T13:16:42.110Z,29.18
2017-06-17T13:18:58.644Z,30.24
2017-06-17T13:21:00.235Z,28.72
2017-06-17T13:23:16.778Z,29.28
2017-06-17T13:25:41.786Z,29.85
2017-06-17T13:27:43.882Z,29.18
2017-06-17T13:30:08.839Z,30.34
2017-06-17T13:32:19.001Z,29.38
2017-06-17T13:34:43.986Z,30.24
2017-06-17T13:37:00.481Z,30.99
2017-06-17T13:39:25.470Z,30.63
2017-06-17T13:41:27.172Z,31.1
2017-06-17T13:43:52.225Z,29.59
2017-06-17T13:46:17.189Z,28.34
2017-06-17T13:48:33.648Z,27.66
2017-06-17T13:50:58.614Z,28.42
2017-06-17T13:53:23.589Z,29.79
2017-06-17T13:55:48.534Z,30.65
2017-06-17T13:57:56.474Z,30.45
2017-06-17T14:00:21.462Z,30.06
2017-06-17T14:02:23.093Z,29.3
2017-06-17T14:04:48.103Z,31.02
2017-06-17T14:07:13.018Z,32.16
2017-06-17T14:09:29.457Z,32.57
2017-06-17T14:11:54.347Z,31.33
2017-06-17T14:14:19.288Z,31.9
2017-06-17T14:16:44.186Z,31.7
2017-06-17T14:19:09.095Z,30.27
2017-06-17T14:21:34.016Z,29.42
2017-06-17T14:23:50.395Z,29.79
2017-06-17T14:26:06.836Z,31.51
2017-06-17T14:28:31.729Z,31.43
2017-06-17T14:30:56.658Z,31.99
2017-06-17T14:33:21.584Z,32.67
2017-06-17T14:35:46.494Z,32.29
2017-06-17T14:38:02.935Z,32.6
2017-06-17T14:40:27.848Z,32.4
2017-06-17T14:42:52.747Z,31.62
2017-06-17T14:45:09.203Z,31.8
2017-06-17T14:47:34.094Z,33.82
2017-06-17T14:49:58.969Z,34.66
2017-06-17T14:52:06.902Z,34.19
2017-06-17T14:54:23.319Z,34.29
2017-06-17T14:56:39.687Z,33.98
2017-06-17T14:59:04.541Z,33.33
2017-06-17T15:01:20.890Z,33.8
2017-06-17T15:03:45.701Z,33.9
2017-06-17T15:06:10.508Z,36.08
2017-06-17T15:08:26.811Z,37.14
2017-06-17T15:10:43.116Z,36.67
2017-06-17T15:13:07.887Z,35.42
2017-06-17T15:15:32.621Z,37.22
2017-06-17T15:17:57.374Z,37.92
2017-06-17T15:20:22.113Z,37.45
2017-06-17T15:22:47.878Z,36.3
2017-06-17T15:25:12.625Z,36.88
2017-06-17T15:27:37.335Z,37.08
2017-06-17T15:30:02.130Z,36.8
2017-06-17T15:32:26.842Z,36.12
2017-06-17T15:34:51.571Z,36.32
2017-06-17T15:37:16.349Z,37.35
2017-06-17T15:39:41.106Z,37.08
2017-06-17T15:41:34.683Z,36.8
2017-06-17T15:43:59.486Z,37.08
2017-06-17T15:46:15.780Z,37.82
2017-06-17T15:48:32.028Z,38.96
2017-06-17T15:50:48.250Z,38.5
2017-06-17T15:53:12.974Z,39.06
2017-06-17T15:55:15.020Z,39.26
2017-06-17T15:57:40.784Z,40.06
2017-06-17T16:00:05.490Z,39.96
2017-06-17T16:02:30.157Z,40.33
2017-06-17T16:04:53.328Z,39.45
2017-06-17T16:07:18.000Z,40.64
2017-06-17T16:09:34.185Z,40.42
2017-06-17T16:11:50.373Z,40.81
2017-06-17T16:14:06.531Z,40.73
2017-06-17T16:16:31.179Z,39.57
2017-06-17T16:18:56.844Z,41.08
2017-06-17T16:21:21.534Z,40.41
2017-06-17T16:23:46.171Z,40.99
2017-06-17T16:26:02.382Z,40.72
2017-06-17T16:28:18.565Z,40.81
2017-06-17T16:32:19.539Z,40.15
2017-06-17T16:34:44.176Z,40.33
2017-06-17T16:37:08.810Z,42.11
2017-06-17T16:39:33.423Z,42.23
2017-06-17T16:41:58.052Z,42.03
2017-06-17T16:44:23.646Z,42.13
2017-06-17T16:46:48.244Z,41.08
2017-06-17T16:49:12.851Z,42.89
2017-06-17T16:51:28.951Z,42.71
2017-06-17T16:53:53.539Z,42.89
2017-06-17T16:56:01.194Z,43.64
2017-06-17T16:58:25.699Z,44.61
2017-06-17T17:00:50.237Z,44.68
2017-06-17T17:03:14.779Z,43.37
2017-06-17T17:05:39.321Z,43.45
2017-06-17T17:08:03.869Z,44.03
2017-06-17T17:10:29.401Z,43.74
2017-06-17T17:12:39.947Z,44.23
2017-06-17T17:14:56.058Z,44.42
2017-06-17T17:17:20.604Z,44.23
2017-06-17T17:19:45.080Z,44.15
2017-06-17T17:22:09.554Z,43.64
2017-06-17T17:24:34.086Z,42.89
2017-06-17T17:26:58.607Z,42.61
2017-06-17T17:29:23.129Z,42.81
2017-06-17T17:31:39.182Z,44.71
2017-06-17T17:33:55.260Z,43.66
2017-06-17T17:36:19.786Z,43.57
2017-06-17T17:38:44.308Z,43.47
2017-06-17T17:41:08.830Z,43.49
2017-06-17T17:43:33.317Z,43.49
2017-06-17T17:45:57.835Z,43.95
2017-06-17T17:48:22.336Z,44.61
2017-06-17T17:50:29.931Z,45.39
2017-06-17T17:52:54.433Z,45.48
2017-06-17T17:55:18.943Z,45.97
2017-06-17T17:57:43.437Z,45.2
2017-06-17T18:00:07.959Z,45.95
2017-06-17T18:02:23.993Z,45.75
2017-06-17T18:04:31.538Z,45.95
2017-06-17T18:06:56.053Z,45.29
2017-06-17T18:09:20.501Z,46.24
2017-06-17T18:11:44.983Z,46.24
2017-06-17T18:14:09.465Z,46.92
2017-06-17T18:18:10.293Z,47.3
2017-06-17T18:20:11.753Z,47.02
2017-06-17T18:22:36.247Z,47.2
2017-06-17T18:25:00.656Z,47.11
2017-06-17T18:27:02.127Z,47.67
2017-06-17T18:29:26.600Z,48.71
2017-06-17T18:31:51.057Z,48.9
2017-06-17T18:34:15.484Z,49.19
2017-06-17T18:36:16.965Z,49.65
2017-06-17T18:38:41.365Z,51.28
2017-06-17T18:41:05.747Z,50.43
2017-06-17T18:43:30.181Z,49.75
2017-06-17T18:45:54.588Z,49.75
2017-06-17T18:48:19.124Z,49.85
2017-06-17T18:50:43.618Z,49.77
2017-06-17T18:53:08.133Z,50.14
2017-06-17T18:55:32.491Z,51.01
2017-06-17T18:57:56.906Z,50.33
2017-06-17T19:00:21.333Z,50.14
2017-06-17T19:02:45.738Z,50.43
2017-06-17T19:05:01.653Z,50.52
2017-06-17T19:07:26.048Z,50.92
2017-06-17T19:09:41.962Z,50.82
2017-06-17T19:11:57.887Z,52.24
2017-06-17T19:14:22.258Z,52.24
2017-06-17T19:16:46.659Z,51.37
2017-06-17T19:19:11.040Z,51.59
2017-06-17T19:21:35.405Z,51.76
2017-06-17T19:23:59.712Z,52.89
2017-06-17T19:26:15.600Z,52.34
2017-06-17T19:28:31.503Z,52.44
2017-06-17T19:30:47.391Z,52.82
2017-06-17T19:33:03.284Z,52.73
2017-06-17T19:35:27.651Z,52.92
2017-06-17T19:37:43.538Z,52.36
2017-06-17T19:39:59.434Z,53.5
2017-06-17T19:42:15.366Z,52.92
2017-06-17T19:44:39.667Z,53.02
2017-06-17T19:47:04.046Z,53.21
2017-06-17T19:49:28.394Z,54.08
2017-06-17T19:51:52.736Z,54.37
2017-06-17T19:54:17.081Z,53.5
2017-06-17T19:56:41.435Z,53.69
2017-06-17T19:59:05.787Z,53.5
2017-06-17T20:01:30.139Z,54.08
2017-06-17T20:03:31.599Z,54.83
2017-06-17T20:05:55.921Z,55.05
2017-06-17T20:08:20.267Z,54.08
2017-06-17T20:10:44.561Z,55.57
2017-06-17T20:13:08.889Z,55.31
2017-06-17T20:15:33.202Z,55.02
2017-06-17T20:17:57.520Z,55.31
2017-06-17T20:20:21.816Z,56.05
2017-06-17T20:22:29.223Z,55.51
2017-06-17T20:24:53.476Z,56.63
2017-06-17T20:26:54.902Z,55.89
2017-06-17T20:29:19.221Z,56.28
2017-06-17T20:31:43.520Z,56.93
2017-06-17T20:34:07.801Z,55.79
2017-06-17T20:36:32.114Z,55.6
2017-06-17T20:38:56.367Z,56.83
2017-06-17T20:41:20.670Z,56.18
2017-06-17T20:43:36.488Z,56.63
2017-06-17T20:45:52.309Z,57.31
2017-06-17T20:48:16.575Z,57.41
2017-06-17T20:50:40.856Z,57.57
2017-06-17T20:53:05.117Z,57.7
2017-06-17T20:55:20.933Z,57.79
2017-06-17T20:57:45.239Z,57.96
2017-06-17T21:00:09.507Z,59.02
2017-06-17T21:02:33.743Z,59.51
2017-06-17T21:04:58.004Z,58.83
2017-06-17T21:07:22.260Z,59.22
2017-06-17T21:09:46.504Z,59.51
2017-06-17T21:12:02.330Z,59.02
2017-06-17T21:14:26.569Z,59.41
2017-06-17T21:16:50.826Z,59.31
2017-06-17T21:19:15.053Z,59.41
2017-06-17T21:21:25.017Z,59.6
2017-06-17T21:23:34.990Z,60.06
2017-06-17T21:25:59.256Z,60.44
2017-06-17T21:28:09.233Z,60.64
2017-06-17T21:30:19.183Z,60.35
2017-06-17T21:32:35.020Z,60.54
2017-06-17T21:34:59.241Z,60.54
2017-06-17T21:37:15.031Z,60.64
2017-06-17T21:39:39.270Z,60.28
2017-06-17T21:42:03.486Z,60.35
2017-06-17T21:44:19.270Z,62.25
2017-06-17T21:46:43.492Z,62.15
2017-06-17T21:48:59.259Z,62.41
2017-06-17T21:51:23.406Z,61.83
2017-06-17T21:53:47.591Z,62.6
2017-06-17T21:56:11.799Z,61.57
2017-06-17T21:58:35.941Z,60.71
2017-06-17T22:01:00.152Z,60.64
2017-06-17T22:03:24.382Z,60.06
2017-06-17T22:05:48.609Z,59.86
2017-06-17T22:08:12.831Z,60.64
2017-06-17T22:10:37.064Z,60.71
2017-06-17T22:12:52.766Z,62.25
2017-06-17T22:15:16.960Z,61.96
2017-06-17T22:17:32.681Z,61.96
2017-06-17T22:19:56.876Z,61.96
2017-06-17T22:22:12.609Z,61.57
2017-06-17T22:24:36.798Z,62.22
2017-06-17T22:28:37.583Z,61.57
2017-06-17T22:31:01.796Z,61.38
2017-06-17T22:33:17.476Z,60.83
2017-06-17T22:35:41.643Z,61.31
2017-06-17T22:38:05.792Z,61.67
2017-06-17T22:40:29.962Z,61.67
2017-06-17T22:42:45.709Z,63.28
2017-06-17T22:45:09.920Z,62.51
2017-06-17T22:47:34.130Z,62.63
2017-06-17T22:49:58.350Z,62.63
2017-06-17T22:52:22.475Z,62.54
2017-06-17T22:54:46.650Z,61.96
2017-06-17T22:57:02.350Z,61.86
2017-06-17T22:59:26.549Z,62.44
2017-06-17T23:01:50.761Z,62.82
2017-06-17T23:04:06.542Z,62.54
2017-06-17T23:06:30.759Z,62.25
2017-06-17T23:08:54.987Z,61.47
2017-06-17T23:11:19.204Z,61.19
2017-06-17T23:13:34.908Z,61.22
2017-06-17T23:15:50.678Z,60.83
2017-06-17T23:18:14.843Z,62.08
2017-06-17T23:20:39.072Z,61.67
2017-06-17T23:22:54.822Z,61.51
2017-06-17T23:25:19.026Z,61.02
2017-06-17T23:27:34.800Z,61.77
2017-06-17T23:29:58.989Z,61.47
2017-06-17T23:32:23.183Z,61.86
2017-06-17T23:34:38.886Z,61.57
2017-06-17T23:37:03.078Z,61.99
2017-06-17T23:39:27.276Z,61.6
2017-06-17T23:41:51.491Z,61.38
2017-06-17T23:44:15.680Z,61.31
2017-06-17T23:46:31.422Z,60.73
2017-06-17T23:48:55.634Z,60.25
2017-06-17T23:51:19.762Z,60.47
2017-06-17T23:53:35.472Z,60.38
2017-06-17T23:55:42.753Z,59.99
2017-06-17T23:58:06.938Z,59.8
